Exhall, United Kingdom
Current Conditions -  °F | °C
As of 4:20 PM on Thursday 29 Jan 2015 (Local Time) from EGBE Reporting Station
Snow Showers Snow Showers  
Wind Chill: 27°   Ceiling: 2500
Heat Index: 36°   Visibility: 0.62mi
Dew Point: 32°   Wind: 14mph
Humidity: 87%   Direction: 260°W
Pressure: 28.85"   Gusts: 31mph
Location:  52.46°N, 1.48°W
Report Text: EGBE 291620Z 26012G27KT 1000 SHSN SCT008CB BKN025 02/00 Q0977
Loading
Personal Weather Stations






























Interactive Weather Map New forecast layout! Learn more

10-Day Weather Forecast

Advertisements
Track Severe Weather on mobile